• Join FlightAware (Why Join?)
  • Login
  • US Flag 
08:24AM EDT


 

Airport Tracker/Info


-or-


 

Live Flight TrackerFlight Track Log ✈ SKW5516 ✈ 10-Jun-2013 ✈ KIAD - KSAT

Flight Track Log - Related Links

Times and Time Zones

All times are in EDT time to prevent confusion due to time zone crossing. See the SKW5516 flight status page for this flight to view local times or setup timezone preferences in your user account.

Time Position Orientation Groundspeed Altitude Reporting Facility
EDT Latitude Longitude Course Direction KTS MPH feet Rate Location/Type
08:50AM 38.9000 -77.4667 218° Southwest 191 220 2,400  Level Potomac TRACON
08:51AM 38.8500 -77.5167 218° Southwest 238 274 4,400 2,220 Climbing Potomac TRACON
08:52AM 38.7839 -77.6156 229° Southwest 248 285 8,400 2,100 Climbing Washington Center
08:53AM 38.7636 -77.7056 254° West 253 291 10,000 1,860 Climbing Washington Center
08:54AM 38.7742 -77.8125 277° West 273 314 12,100 1,800 Climbing Washington Center
08:55AM 38.7864 -77.9272 278° West 302 348 13,700 1,440 Climbing Washington Center
08:56AM 38.8172 -78.0561 287° West 327 376 15,100 1,500 Climbing Washington Center
08:57AM 38.8458 -78.1797 287° West 347 399 16,700 1,500 Climbing Washington Center
08:58AM 38.8536 -78.3081 274° West 360 414 18,100 1,380 Climbing Washington Center
08:59AM 38.8525 -78.4411 269° West 365 420 19,500 1,320 Climbing Washington Center
09:00AM 38.8514 -78.5772 269° West 370 426 20,800 1,140 Climbing Washington Center
09:01AM 38.8500 -78.7131 269° West 382 440 21,900 1,200 Climbing Washington Center
09:02AM 38.8483 -78.8517 269° West 387 445 23,200 1,140 Climbing Washington Center
09:03AM 38.8467 -78.9928 269° West 387 445 24,200 900 Climbing Washington Center
09:04AM 38.8425 -79.1311 268° West 387 445 25,100 780 Climbing Washington Center
09:05AM 38.8300 -79.2692 263° West 392 451 25,800 780 Climbing Washington Center
09:06AM 38.8050 -79.4092 257° West 399 459 26,700 900 Climbing Washington Center
09:07AM 38.7836 -79.5492 259° West 404 465 27,700 960 Climbing Washington Center
09:08AM 38.7561 -79.6889 256° West 411 473 28,700 960 Climbing Washington Center
09:10AM 38.7064 -79.9286 255° West 397 457 30,600 780 Climbing Indianapolis Center
09:11AM 38.6808 -80.0664 257° West 396 456 31,100 480 Climbing Indianapolis Center
09:12AM 38.6533 -80.2078 256° West 408 470 31,600 780 Climbing Indianapolis Center
09:13AM 38.6225 -80.3778 257° West 407 468 32,800 1,020 Climbing Indianapolis Center
09:14AM 38.5961 -80.5167 256° West 402 463 33,800 780 Climbing Indianapolis Center
09:15AM 38.5703 -80.6528 256° West 395 455 34,400 480 Climbing Indianapolis Center
09:16AM 38.5436 -80.7908 256° West 399 459 34,900 720 Climbing Indianapolis Center
09:17AM 38.5169 -80.9286 256° West 398 458 35,900 480 Climbing Indianapolis Center
09:18AM 38.4894 -81.0644 256° West 394 453 36,000  Climbing Indianapolis Center
09:19AM 38.4625 -81.2036 256° West 399 459 36,000  Level Indianapolis Center
09:20AM 38.4339 -81.3439 255° West 402 463 36,000  Level Indianapolis Center
09:22AM 38.4069 -81.4844 256° West 402 463 36,000  Level Indianapolis Center
09:23AM 38.3783 -81.6253 256° West 404 465 36,000  Level Indianapolis Center
09:24AM 38.3444 -81.7897 255° West 399 459 36,000  Level Indianapolis Center
09:25AM 38.3061 -81.9217 250° West 395 455 36,000  Level Indianapolis Center
09:26AM 38.2697 -82.0547 251° West 393 452 36,000  Level Indianapolis Center
09:27AM 38.2333 -82.1844 250° West 394 453 36,000  Level Indianapolis Center
09:28AM 38.1964 -82.3150 250° West 393 452 36,000  Level Indianapolis Center
09:29AM 38.1583 -82.4444 250° West 391 450 36,000 -60 Level Indianapolis Center
09:30AM 38.1158 -82.5947 250° West 389 448 35,900  Descending Indianapolis Center
09:31AM 38.0794 -82.7222 250° West 386 444 36,000  Climbing Indianapolis Center
09:32AM 38.0414 -82.8528 250° West 390 449 36,000  Level Indianapolis Center
09:33AM 38.0050 -82.9800 250° West 386 444 36,000  Level Indianapolis Center
09:34AM 37.9669 -83.1083 249° West 388 447 36,000  Level Indianapolis Center
09:35AM 37.9292 -83.2383 250° West 391 450 36,000  Level Indianapolis Center
09:36AM 37.8833 -83.3903 249° West 395 455 36,000  Level Indianapolis Center
09:37AM 37.8442 -83.5239 250° West 402 463 36,000  Level Indianapolis Center
09:38AM 37.8047 -83.6547 249° West 400 460 36,000  Level Indianapolis Center
09:39AM 37.7653 -83.7878 249° West 403 464 36,000  Level Indianapolis Center
09:40AM 37.7258 -83.9189 249° West 401 461 36,000  Level Indianapolis Center
09:41AM 37.6850 -84.0519 249° West 404 465 36,000  Level Indianapolis Center
09:42AM 37.6381 -84.2042 249° West 402 463 36,000  Level Indianapolis Center
09:43AM 37.5989 -84.3350 249° West 400 460 36,000  Level Indianapolis Center
09:44AM 37.5583 -84.4664 249° West 401 461 36,000  Level Indianapolis Center
09:45AM 37.5175 -84.5978 249° West 400 460 36,000  Level Indianapolis Center
09:46AM 37.4775 -84.7281 249° West 398 458 36,000  Level Indianapolis Center
09:47AM 37.4375 -84.8575 249° West 396 456 36,000  Level Indianapolis Center
09:48AM 37.3911 -85.0075 249° West 394 453 36,000  Level Indianapolis Center
09:49AM 37.3494 -85.1375 248° West 398 458 36,000  Level Indianapolis Center
09:50AM 37.3067 -85.2686 248° West 404 465 36,000  Level Indianapolis Center
09:51AM 37.2661 -85.3994 249° West 403 464 36,000  Level Indianapolis Center
09:52AM 37.2200 -85.5453 248° West 406 467 36,000  Level Indianapolis Center
09:53AM 37.1772 -85.6772 248° West 406 467 36,000  Level Indianapolis Center
09:54AM 37.1344 -85.8100 248° West 406 467 36,000  Level Indianapolis Center
09:56AM 37.0919 -85.9425 248° West 407 468 36,000  Level Indianapolis Center
09:57AM 37.0483 -86.0756 248° West 411 473 36,000  Level Indianapolis Center
09:58AM 37.0047 -86.2094 248° West 410 472 36,000  Level Indianapolis Center
09:59AM 36.9606 -86.3433 248° West 414 476 36,000  Level Indianapolis Center
09:59AM 36.9322 -86.4328 248° West 419 482 36,000  Level Memphis Center
10:00AM 36.8694 -86.5578 238° Southwest 419 482 36,000  Level Memphis Center
10:01AM 36.8086 -86.6772 238° Southwest 424 488 36,000  Level Memphis Center
10:02AM 36.7456 -86.8044 238° Southwest 424 488 36,000  Level Memphis Center
10:03AM 36.6781 -86.9289 236° Southwest 430 495 36,000  Level Memphis Center
10:04AM 36.6150 -87.0558 238° Southwest 435 501 36,000  Level Memphis Center
10:05AM 36.5494 -87.1825 237° Southwest 435 501 36,000  Level Memphis Center
10:06AM 36.4817 -87.3089 236° Southwest 441 507 36,000  Level Memphis Center
10:07AM 36.4078 -87.4458 236° Southwest 441 507 36,000  Level Memphis Center
10:08AM 36.3419 -87.5692 236° Southwest 447 514 36,000  Level Memphis Center
10:09AM 36.2758 -87.6950 237° Southwest 447 514 36,000  Level Memphis Center
10:10AM 36.2097 -87.8208 237° Southwest 447 514 36,000  Level Memphis Center
10:11AM 36.1433 -87.9436 236° Southwest 442 509 36,000  Level Memphis Center
10:12AM 36.0769 -88.0661 236° Southwest 442 509 36,000  Level Memphis Center
10:13AM 36.0183 -88.1731 236° Southwest 436 502 36,000  Level Memphis Center
10:14AM 35.9517 -88.2928 236° Southwest 430 495 36,000  Level Memphis Center
10:15AM 35.8869 -88.4122 236° Southwest 430 495 36,000  Level Memphis Center
10:16AM 35.8178 -88.5369 236° Southwest 430 495 36,000  Level Memphis Center
10:17AM 35.7508 -88.6611 236° Southwest 435 501 36,000  Level Memphis Center
10:18AM 35.6836 -88.7800 235° Southwest 435 501 36,000  Level Memphis Center
10:19AM 35.6122 -88.9142 237° Southwest 435 501 36,000  Level Memphis Center
10:20AM 35.5467 -89.0353 236° Southwest 435 501 36,000  Level Memphis Center
10:21AM 35.4750 -89.1536 233° Southwest 440 506 36,000  Level Memphis Center
10:22AM 35.3947 -89.2644 228° Southwest 440 506 36,000  Level Memphis Center
10:23AM 35.3247 -89.3644 229° Southwest 440 506 36,000  Level Memphis Center
10:24AM 35.2442 -89.4775 229° Southwest 435 501 36,000  Level Memphis Center
10:25AM 35.1675 -89.5850 229° Southwest 435 501 36,000  Level Memphis Center
10:26AM 35.0889 -89.6972 229° Southwest 435 501 36,000  Level Memphis Center
10:27AM 35.0103 -89.8094 229° Southwest 435 501 36,000  Level Memphis Center
10:28AM 34.9272 -89.9264 229° Southwest 446 513 36,000  Level Memphis Center
10:29AM 34.8422 -90.0333 226° Southwest 451 519 36,000  Level Memphis Center
10:30AM 34.7608 -90.1422 228° Southwest 445 512 36,000  Level Memphis Center
10:31AM 34.6797 -90.2511 228° Southwest 445 512 36,000  Level Memphis Center
10:32AM 34.5983 -90.3597 228° Southwest 445 512 36,000  Level Memphis Center
10:33AM 34.5192 -90.4681 228° Southwest 440 506 36,000  Level Memphis Center
10:34AM 34.4375 -90.5761 228° Southwest 440 506 36,000  Level Memphis Center
10:35AM 34.3558 -90.6867 228° Southwest 443 510 36,000  Level Memphis Center
10:36AM 34.2658 -90.8044 227° Southwest 443 510 36,000  Level Memphis Center
10:37AM 34.1839 -90.9144 228° Southwest 438 504 36,000  Level Memphis Center
10:38AM 34.1022 -91.0244 228° Southwest 438 504 36,000  Level Memphis Center
10:39AM 34.0181 -91.1292 226° Southwest 438 504 36,000  Level Memphis Center
10:40AM 33.9358 -91.2411 228° Southwest 438 504 36,000  Level Memphis Center
10:41AM 33.8517 -91.3503 227° Southwest 438 504 36,000  Level Memphis Center
10:42AM 33.7778 -91.4467 227° Southwest 443 510 36,000  Level Memphis Center
10:43AM 33.6933 -91.5556 227° Southwest 443 510 36,000  Level Memphis Center
10:44AM 33.6108 -91.6667 228° Southwest 443 510 36,000  Level Memphis Center
10:46AM 33.4742 -91.8506 228° Southwest 450 518 36,000  Level Fort Worth Center
10:47AM 33.3872 -91.9606 227° Southwest 450 518 36,000  Level Fort Worth Center
10:48AM 33.3022 -92.0700 227° Southwest 462 532 36,000  Level Fort Worth Center
10:49AM 33.2050 -92.1903 226° Southwest 462 532 36,000  Level Fort Worth Center
10:50AM 33.1197 -92.2992 227° Southwest 456 525 36,000  Level Fort Worth Center
10:51AM 33.0325 -92.4108 227° Southwest 462 532 36,000  Level Fort Worth Center
10:52AM 32.9428 -92.5197 226° Southwest 462 532 36,000  Level Fort Worth Center
10:53AM 32.8594 -92.6308 228° Southwest 456 525 36,000  Level Fort Worth Center
10:54AM 32.7717 -92.7392 226° Southwest 456 525 36,000  Level Fort Worth Center
10:55AM 32.6839 -92.8497 227° Southwest 461 531 36,000  Level Fort Worth Center
10:56AM 32.5939 -92.9603 226° Southwest 461 531 36,000  Level Fort Worth Center
10:57AM 32.5039 -93.0731 227° Southwest 461 531 36,000  Level Fort Worth Center
10:58AM 32.4158 -93.1856 227° Southwest 461 531 36,000  Level Fort Worth Center
10:59AM 32.3275 -93.2931 226° Southwest 461 531 36,000  Level Fort Worth Center
10:59AM 32.2994 -93.3300 228° Southwest 463 533 36,000  Level Houston Center
11:00AM 32.2372 -93.4053 226° Southwest 461 531 36,000  Level Fort Worth Center
11:01AM 32.1592 -93.5092 228° Southwest 461 531 36,000  Level Fort Worth Center
11:01AM 32.1203 -93.5544 225° Southwest 471 542 36,000  Level Houston Center
11:02AM 32.0319 -93.6619 226° Southwest 461 531 36,000  Level Houston Center
11:03AM 31.9244 -93.7939 226° Southwest 467 537 36,000  Level Houston Center
11:04AM 31.8347 -93.9033 226° Southwest 468 539 36,000  Level Houston Center
11:05AM 31.7425 -94.0158 226° Southwest 473 544 36,000  Level Houston Center
11:07AM 31.6525 -94.1272 227° Southwest 471 542 36,000  Level Houston Center
11:08AM 31.5600 -94.2386 226° Southwest 476 548 36,000  Level Houston Center
11:09AM 31.4683 -94.3494 226° Southwest 473 544 36,000  Level Houston Center
11:10AM 31.3753 -94.4608 226° Southwest 478 550 36,000  Level Houston Center
11:11AM 31.2631 -94.5950 226° Southwest 478 550 36,000  Level Houston Center
11:12AM 31.1778 -94.6989 226° Southwest 485 558 36,000  Level Houston Center
11:13AM 31.0633 -94.8222 223° Southwest 483 556 36,000  Level Houston Center
11:14AM 30.9650 -94.9292 223° Southwest 482 555 36,000  Level Houston Center
11:15AM 30.8678 -95.0336 223° Southwest 477 549 36,000  Level Houston Center
11:16AM 30.7689 -95.1389 222° Southwest 478 550 36,000  Level Houston Center
11:17AM 30.6694 -95.2447 222° Southwest 483 556 36,000  Level Houston Center
11:18AM 30.5714 -95.3503 223° Southwest 481 554 36,000  Level Houston Center
11:19AM 30.4644 -95.4639 222° Southwest 482 555 36,000  Level Houston Center
11:20AM 30.3675 -95.5683 223° Southwest 482 555 36,000  Level Houston Center
11:21AM 30.2692 -95.6714 222° Southwest 479 551 36,000  Level Houston Center
11:22AM 30.1514 -95.7947 222° Southwest 479 551 36,000  Level Houston Center
11:23AM 30.0519 -95.8964 222° Southwest 480 552 36,000  Level Houston Center
11:24AM 29.9519 -96.0006 222° Southwest 485 558 36,000  Level Houston Center
11:25AM 29.8572 -96.1078 224° Southwest 483 556 36,000  Level Houston Center
11:26AM 29.8019 -96.2458 245° Southwest 480 552 36,000  Level Houston Center
11:27AM 29.8072 -96.4300 272° West 483 556 36,000  Level Houston Center
11:28AM 29.8181 -96.5828 275° West 482 555 36,000  Level Houston Center
11:29AM 29.8272 -96.7361 274° West 485 558 36,000 -420 Level Houston Center
11:30AM 29.8372 -96.8894 274° West 486 559 35,200 -2,100 Descending Houston Center
11:31AM 29.8481 -97.0433 275° West 486 559 31,700 -3,780 Descending Houston Center
11:32AM 29.8589 -97.2253 274° West 480 552 27,400 -3,780 Descending Houston Center
11:33AM 29.8683 -97.3753 274° West 474 545 23,900 -3,360 Descending Houston Center
11:34AM 29.8761 -97.5206 274° West 460 529 20,500 -3,360 Descending Houston Center
11:36AM 29.8875 -97.6833 275° West 442 509 17,000 -3,300 Descending Houston Center
11:36AM 29.8897 -97.7253 274° West 436 502 16,100 -2,940 Descending Houston Center
11:37AM 29.8958 -97.8189 274° West 428 493 14,000 -2,880 Descending Houston Center
11:37AM 29.8919 -97.8578 263° West 416 479 13,200 -1,500 Descending Houston Center
11:38AM 29.8622 -97.9431 248° West 368 423 12,500 -900 Descending Houston Center
11:38AM 29.8542 -97.9661 248° West 348 400 12,300 -900 Descending Houston Center
11:39AM 29.8239 -98.0372 244° Southwest 321 369 11,600 -1,260 Descending Houston Center
11:40AM 29.7619 -98.1108 226° Southwest 302 348 10,100 -1,500 Descending Houston Center
11:41AM 29.6836 -98.1847 219° Southwest 302 348 8,300 -1,320 Descending Houston Center
11:42AM 29.6292 -98.2358 219° Southwest 295 339 7,400 -1,200 Descending Houston Center
11:43AM 29.5619 -98.2983 219° Southwest 288 331 6,000 -720 Descending Houston Center
11:44AM 29.5100 -98.3478 220° Southwest 281 323 6,000 -180 Level Houston Center
11:45AM 29.4519 -98.4028 220° Southwest 263 303 5,700 -1,200 Descending Houston Center
11:46AM 29.3947 -98.4650 223° Southwest 264 304 3,700 -1,080 Descending Houston Center
11:47AM 29.4133 -98.5322 288° West 217 250 3,600 -600 Descending Houston Center
11:48AM 29.4614 -98.5289 North 170 196 2,600 -1,020 Descending Houston Center
11:49AM 29.4961 -98.4958 40° Northeast 151 174 1,600 -840 Descending Houston Center
11:50AM 29.5350 -98.4597 39° Northeast 143 165 800 -660 Descending Houston Center